createdAt,value
2019-02-06T00:02:12.448Z,50.50
2019-02-06T00:08:02.997Z,50.50
2019-02-06T00:10:45.444Z,50.50
2019-02-06T00:16:59.960Z,50.50
2019-02-06T00:19:38.257Z,50.40
2019-02-06T00:22:15.445Z,50.40
2019-02-06T00:24:56.348Z,50.40
2019-02-06T00:27:36.974Z,50.40
2019-02-06T00:30:16.083Z,50.40
2019-02-06T00:32:56.022Z,50.40
2019-02-06T00:35:34.142Z,50.40
2019-02-06T00:38:09.552Z,50.30
2019-02-06T00:40:52.457Z,50.40
2019-02-06T00:43:32.065Z,50.30
2019-02-06T00:52:08.699Z,50.40
2019-02-06T00:54:48.327Z,50.20
2019-02-06T00:57:26.301Z,50.20
2019-02-06T01:00:05.277Z,50.20
2019-02-06T01:06:13.786Z,50.20
2019-02-06T01:09:16.063Z,50.20
2019-02-06T01:11:57.130Z,50.20
2019-02-06T01:15:19.697Z,50.30
2019-02-06T01:22:11.953Z,50.10
2019-02-06T01:25:16.763Z,50.00
2019-02-06T01:27:57.425Z,49.90
2019-02-06T01:35:55.081Z,49.90
2019-02-06T01:43:23.745Z,50.00
2019-02-06T01:48:03.634Z,50.10
2019-02-06T01:51:12.807Z,50.00
2019-02-06T01:54:51.336Z,50.00
2019-02-06T01:56:58.118Z,49.90
2019-02-06T01:59:46.136Z,50.10
2019-02-06T02:02:29.484Z,49.90
2019-02-06T02:05:15.830Z,49.80
2019-02-06T02:08:01.101Z,49.80
2019-02-06T02:10:41.023Z,49.70
2019-02-06T02:13:27.385Z,49.70
2019-02-06T02:16:30.435Z,49.60
2019-02-06T02:25:28.230Z,49.80
2019-02-06T02:32:15.541Z,49.60
2019-02-06T02:35:01.108Z,49.60
2019-02-06T02:37:41.710Z,49.60
2019-02-06T02:43:33.525Z,49.60
2019-02-06T02:46:12.259Z,49.60
2019-02-06T02:48:53.380Z,49.60
2019-02-06T02:51:52.745Z,49.50
2019-02-06T02:54:36.558Z,49.50
2019-02-06T02:57:15.419Z,49.40
2019-02-06T03:00:11.448Z,49.40
2019-02-06T03:03:02.574Z,49.30
2019-02-06T03:05:39.723Z,49.40
2019-02-06T03:08:21.013Z,49.30
2019-02-06T03:10:57.568Z,49.20
2019-02-06T03:13:32.997Z,49.20
2019-02-06T03:16:08.257Z,49.70
2019-02-06T03:18:56.191Z,49.30
2019-02-06T03:21:50.953Z,49.30
2019-02-06T03:24:47.119Z,49.20
2019-02-06T03:27:39.206Z,49.30
2019-02-06T03:30:17.254Z,49.30
2019-02-06T03:33:16.655Z,49.30
2019-02-06T03:35:49.299Z,49.40
2019-02-06T03:38:36.392Z,49.50
2019-02-06T03:45:12.908Z,49.50
2019-02-06T03:47:55.748Z,49.50
2019-02-06T03:52:43.776Z,50.20
2019-02-06T03:58:04.485Z,49.50
2019-02-06T04:00:38.387Z,49.40
2019-02-06T04:07:15.422Z,49.40
2019-02-06T04:09:58.578Z,49.30
2019-02-06T04:12:36.762Z,49.30
2019-02-06T04:16:12.577Z,49.30
2019-02-06T04:21:17.243Z,49.30
2019-02-06T04:29:01.267Z,49.30
2019-02-06T04:30:50.213Z,49.40
2019-02-06T04:33:37.320Z,49.40
2019-02-06T04:37:11.063Z,49.40
2019-02-06T04:40:08.522Z,49.40
2019-02-06T04:42:52.177Z,49.50
2019-02-06T04:45:48.162Z,49.30
2019-02-06T04:51:53.001Z,49.40
2019-02-06T04:54:29.920Z,49.40
2019-02-06T04:57:14.222Z,49.40
2019-02-06T05:00:18.036Z,49.30
2019-02-06T05:03:01.153Z,49.30
2019-02-06T05:05:45.290Z,49.20
2019-02-06T05:08:27.406Z,49.20
2019-02-06T05:11:22.772Z,49.20
2019-02-06T05:17:33.702Z,49.20
2019-02-06T05:20:39.691Z,49.20
2019-02-06T05:23:51.372Z,49.10
2019-02-06T05:26:52.996Z,49.00
2019-02-06T05:29:42.041Z,48.90
2019-02-06T05:32:35.075Z,48.80
2019-02-06T05:35:16.014Z,48.70
2019-02-06T05:38:00.149Z,48.60
2019-02-06T05:40:43.484Z,48.60
2019-02-06T05:43:33.759Z,48.60
2019-02-06T05:46:16.295Z,48.60
2019-02-06T05:49:04.991Z,48.70
2019-02-06T05:51:56.064Z,48.70
2019-02-06T05:54:38.998Z,48.70
2019-02-06T05:57:34.050Z,48.80
2019-02-06T06:00:26.406Z,48.80
2019-02-06T06:03:16.742Z,48.90
2019-02-06T06:06:00.763Z,49.00
2019-02-06T06:08:49.174Z,48.90
2019-02-06T06:11:29.026Z,49.00
2019-02-06T06:14:19.301Z,49.00
2019-02-06T06:17:02.684Z,49.00
2019-02-06T06:19:54.918Z,49.30
2019-02-06T06:22:41.959Z,49.00
2019-02-06T06:25:21.903Z,49.00
2019-02-06T06:28:00.055Z,49.00
2019-02-06T06:30:38.608Z,49.00
2019-02-06T06:33:23.638Z,49.00
2019-02-06T06:36:05.943Z,49.20
2019-02-06T06:40:05.970Z,49.10
2019-02-06T06:41:56.327Z,49.10
2019-02-06T06:48:12.467Z,49.00
2019-02-06T06:51:09.056Z,49.10
2019-02-06T06:54:03.931Z,49.00
2019-02-06T06:56:52.101Z,49.00
2019-02-06T06:59:50.469Z,49.00
2019-02-06T07:02:26.219Z,49.00
2019-02-06T07:05:13.121Z,48.90
2019-02-06T07:07:49.698Z,48.90
2019-02-06T07:10:28.127Z,48.90
2019-02-06T07:13:03.466Z,48.90
2019-02-06T07:15:38.733Z,48.90
2019-02-06T07:18:14.167Z,49.00
2019-02-06T07:20:49.930Z,49.00
2019-02-06T07:23:25.307Z,48.90
2019-02-06T07:26:00.754Z,49.00
2019-02-06T07:28:36.220Z,49.00
2019-02-06T07:31:12.073Z,49.00
2019-02-06T07:33:49.182Z,49.10
2019-02-06T07:36:24.618Z,49.10
2019-02-06T07:39:00.056Z,49.20
2019-02-06T07:41:35.385Z,49.10
2019-02-06T07:44:13.346Z,49.10
2019-02-06T07:46:47.666Z,49.10
2019-02-06T07:49:22.996Z,49.00
2019-02-06T07:52:00.506Z,49.00
2019-02-06T07:54:35.831Z,49.10
2019-02-06T07:57:11.315Z,49.00
2019-02-06T07:59:46.630Z,49.00
2019-02-06T08:02:24.844Z,49.10
2019-02-06T08:05:02.234Z,49.20
2019-02-06T08:07:37.486Z,49.10
2019-02-06T08:10:16.089Z,49.00
2019-02-06T08:12:51.535Z,49.00
2019-02-06T08:15:26.956Z,49.00
2019-02-06T08:18:02.372Z,49.00
2019-02-06T08:20:38.761Z,49.00
2019-02-06T08:23:17.961Z,49.00
2019-02-06T08:25:54.943Z,49.00
2019-02-06T08:28:30.222Z,49.00
2019-02-06T08:31:06.911Z,49.00
2019-02-06T08:33:42.227Z,49.00
2019-02-06T08:36:17.568Z,49.00
2019-02-06T08:38:55.556Z,49.00
2019-02-06T08:41:34.481Z,49.00
2019-02-06T08:44:09.945Z,48.90
2019-02-06T08:46:47.576Z,48.90
2019-02-06T08:49:23.300Z,48.80
2019-02-06T08:51:59.649Z,48.70
2019-02-06T08:54:35.061Z,48.80
2019-02-06T08:57:10.414Z,48.80
2019-02-06T08:59:47.392Z,48.80
2019-02-06T09:02:22.756Z,48.70
2019-02-06T09:04:58.137Z,48.70
2019-02-06T09:07:33.597Z,48.90
2019-02-06T09:10:13.783Z,48.80
2019-02-06T09:12:49.708Z,48.80
2019-02-06T09:15:35.257Z,48.80
2019-02-06T09:18:14.077Z,48.90
2019-02-06T09:21:00.403Z,48.90
2019-02-06T09:23:38.542Z,48.90
2019-02-06T09:26:16.037Z,48.90
2019-02-06T09:28:54.408Z,48.90
2019-02-06T09:31:32.438Z,48.90
2019-02-06T09:34:09.882Z,49.00
2019-02-06T09:36:47.793Z,49.00
2019-02-06T09:39:26.092Z,48.90
2019-02-06T09:42:04.318Z,48.90
2019-02-06T09:44:39.924Z,48.80
2019-02-06T09:47:16.630Z,48.80
2019-02-06T09:49:53.741Z,48.70
2019-02-06T09:52:31.277Z,48.80
2019-02-06T09:55:18.783Z,48.70
2019-02-06T09:57:56.765Z,48.70
2019-02-06T10:00:39.731Z,48.70
2019-02-06T10:03:19.509Z,48.80
2019-02-06T10:06:08.670Z,48.80
2019-02-06T10:08:43.969Z,48.90
2019-02-06T10:12:46.003Z,49.00
2019-02-06T11:14:16.867Z,49.70
2019-02-06T12:00:52.502Z,49.80
2019-02-06T12:07:21.007Z,49.20
2019-02-06T12:10:09.729Z,49.20
2019-02-06T12:13:37.488Z,49.10
2019-02-06T12:16:18.384Z,49.00
2019-02-06T12:19:27.569Z,49.00
2019-02-06T12:22:14.316Z,49.00
2019-02-06T12:24:52.708Z,48.90
2019-02-06T12:27:55.180Z,48.90
2019-02-06T12:30:44.135Z,48.90
2019-02-06T12:33:43.353Z,48.90
2019-02-06T12:36:26.251Z,48.70
2019-02-06T12:39:27.719Z,48.70
2019-02-06T12:42:28.835Z,48.70
2019-02-06T12:45:26.920Z,48.60
2019-02-06T12:48:26.218Z,48.60
2019-02-06T12:54:38.587Z,48.50
2019-02-06T12:58:45.760Z,48.50
2019-02-06T13:02:15.895Z,48.40
2019-02-06T13:05:39.615Z,48.40
2019-02-06T13:09:11.825Z,48.30
2019-02-06T13:11:51.742Z,48.30
2019-02-06T13:14:36.236Z,48.20
2019-02-06T13:17:30.629Z,48.30
2019-02-06T13:20:41.614Z,48.40
2019-02-06T13:23:36.074Z,48.40
2019-02-06T13:26:44.185Z,48.40
2019-02-06T13:33:48.167Z,48.30
2019-02-06T13:36:56.476Z,48.40
2019-02-06T13:39:42.595Z,48.30
2019-02-06T13:42:34.219Z,48.30
2019-02-06T13:45:49.871Z,48.20
2019-02-06T13:48:39.332Z,48.20
2019-02-06T13:51:29.169Z,48.20
2019-02-06T13:54:42.515Z,48.30
2019-02-06T13:57:33.861Z,48.30
2019-02-06T14:00:38.636Z,48.80
2019-02-06T14:03:31.517Z,48.20
2019-02-06T14:06:32.805Z,48.30
2019-02-06T14:09:28.539Z,48.30
2019-02-06T14:12:24.366Z,48.30
2019-02-06T14:15:40.205Z,48.20
2019-02-06T14:22:10.362Z,48.30
2019-02-06T14:25:15.031Z,48.20
2019-02-06T14:28:44.519Z,48.30
2019-02-06T14:32:08.105Z,48.30
2019-02-06T14:35:30.291Z,48.30
2019-02-06T14:38:45.003Z,48.30
2019-02-06T14:42:33.331Z,48.40
2019-02-06T14:45:55.958Z,48.40
2019-02-06T14:49:36.619Z,48.40
2019-02-06T14:53:03.649Z,48.40
2019-02-06T14:56:04.964Z,48.40
2019-02-06T14:59:20.781Z,48.40
2019-02-06T15:02:44.828Z,48.50
2019-02-06T15:06:25.688Z,48.50
2019-02-06T15:09:34.633Z,48.70
2019-02-06T15:12:47.723Z,48.70
2019-02-06T15:16:15.903Z,48.80
2019-02-06T15:19:23.681Z,48.90
2019-02-06T15:22:48.934Z,48.80
2019-02-06T15:29:45.761Z,48.80
2019-02-06T15:33:07.378Z,48.90
2019-02-06T15:36:25.017Z,48.80
2019-02-06T15:39:26.267Z,48.70
2019-02-06T15:42:57.720Z,48.70
2019-02-06T15:46:24.789Z,48.70
2019-02-06T15:49:52.503Z,48.70
2019-02-06T15:53:06.113Z,48.70
2019-02-06T15:56:17.499Z,48.60
2019-02-06T16:03:28.507Z,48.60
2019-02-06T16:06:45.975Z,48.60
2019-02-06T16:09:59.954Z,48.50
2019-02-06T16:13:16.800Z,48.50
2019-02-06T16:16:33.957Z,49.00
2019-02-06T16:20:13.878Z,49.00
2019-02-06T16:23:49.347Z,48.90
2019-02-06T17:08:53.666Z,48.90
2019-02-06T17:16:30.951Z,48.90
2019-02-06T17:40:13.895Z,48.90
2019-02-06T17:43:33.393Z,49.00
2019-02-06T17:46:37.343Z,49.00
2019-02-06T17:49:54.399Z,49.00
2019-02-06T17:53:00.733Z,49.10
2019-02-06T17:55:35.974Z,49.00
2019-02-06T17:58:12.282Z,49.00
2019-02-06T18:19:40.167Z,49.00
2019-02-06T19:03:17.764Z,49.70
2019-02-06T19:06:02.153Z,49.90
2019-02-06T20:34:56.670Z,50.50
2019-02-06T22:55:31.248Z,50.40
2019-02-06T23:14:25.152Z,50.20
2019-02-06T23:16:12.148Z,50.00
2019-02-06T23:19:05.146Z,50.00
2019-02-06T23:21:56.420Z,50.10
2019-02-06T23:29:11.318Z,50.20
2019-02-06T23:31:43.713Z,50.40
2019-02-06T23:35:06.766Z,50.30
2019-02-06T23:38:06.913Z,50.40
2019-02-06T23:41:14.270Z,50.40
2019-02-06T23:44:35.950Z,50.30
2019-02-06T23:47:28.939Z,50.20
2019-02-06T23:50:17.045Z,50.10
2019-02-06T23:53:04.905Z,50.60
2019-02-06T23:56:16.723Z,50.10
2019-02-06T23:59:08.073Z,50.00
